createdAt,value
2022-10-14T00:01:49.841Z,14.00
2022-10-14T00:04:19.229Z,14.00
2022-10-14T00:06:47.360Z,14.00
2022-10-14T00:09:15.325Z,14.00
2022-10-14T00:11:43.392Z,14.00
2022-10-14T00:14:16.149Z,14.00
2022-10-14T00:16:46.031Z,14.00
2022-10-14T00:19:14.870Z,14.00
2022-10-14T00:21:45.945Z,14.00
2022-10-14T00:24:15.956Z,14.00
2022-10-14T00:26:44.293Z,14.00
2022-10-14T00:29:14.665Z,14.00
2022-10-14T00:31:42.654Z,14.00
2022-10-14T00:34:12.897Z,14.00
2022-10-14T00:36:41.375Z,14.00
2022-10-14T00:39:11.077Z,14.00
2022-10-14T00:41:40.040Z,14.00
2022-10-14T00:44:29.359Z,14.00
2022-10-14T00:46:58.708Z,13.90
2022-10-14T00:49:30.759Z,14.00
2022-10-14T00:52:01.657Z,14.00
2022-10-14T00:54:35.846Z,13.90
2022-10-14T00:57:04.930Z,14.00
2022-10-14T00:59:34.559Z,14.00
2022-10-14T01:02:04.719Z,14.00
2022-10-14T01:04:33.235Z,14.00
2022-10-14T01:07:08.899Z,14.00
2022-10-14T01:09:42.210Z,13.90
2022-10-14T01:12:28.718Z,13.90
2022-10-14T01:15:04.987Z,13.90
2022-10-14T01:17:41.265Z,13.90
2022-10-14T01:20:27.244Z,13.90
2022-10-14T01:23:09.136Z,13.90
2022-10-14T01:25:47.481Z,13.90
2022-10-14T01:28:25.486Z,13.90
2022-10-14T01:31:01.886Z,13.90
2022-10-14T01:33:35.876Z,13.90
2022-10-14T01:36:09.853Z,13.90
2022-10-14T01:38:42.922Z,13.90
2022-10-14T01:41:18.377Z,13.90
2022-10-14T01:43:48.796Z,13.90
2022-10-14T01:46:19.925Z,13.90
2022-10-14T01:48:52.184Z,13.80
2022-10-14T01:51:23.881Z,13.80
2022-10-14T01:53:57.844Z,13.80
2022-10-14T01:56:28.107Z,13.90
2022-10-14T01:58:57.336Z,13.90
2022-10-14T02:01:27.263Z,13.90
2022-10-14T02:03:55.412Z,13.80
2022-10-14T02:06:29.017Z,13.90
2022-10-14T02:09:12.669Z,13.90
2022-10-14T02:11:50.524Z,13.90
2022-10-14T02:14:29.046Z,13.80
2022-10-14T02:17:03.006Z,13.90
2022-10-14T02:19:39.371Z,13.80
2022-10-14T02:22:15.561Z,13.80
2022-10-14T02:24:47.484Z,13.80
2022-10-14T02:27:18.467Z,13.80
2022-10-14T02:29:48.350Z,13.90
2022-10-14T02:32:21.571Z,13.90
2022-10-14T02:34:53.144Z,13.90
2022-10-14T02:37:23.662Z,13.90
2022-10-14T02:39:58.315Z,13.90
2022-10-14T02:42:26.497Z,13.90
2022-10-14T02:44:55.350Z,13.90
2022-10-14T02:47:25.663Z,13.80
2022-10-14T02:49:54.029Z,13.80
2022-10-14T02:52:22.653Z,13.80
2022-10-14T02:54:50.830Z,13.80
2022-10-14T02:57:18.877Z,13.80
2022-10-14T02:59:46.809Z,13.80
2022-10-14T03:02:14.834Z,13.80
2022-10-14T03:04:44.337Z,13.80
2022-10-14T03:07:12.298Z,13.80
2022-10-14T03:09:40.248Z,13.80
2022-10-14T03:12:08.857Z,13.80
2022-10-14T03:14:36.777Z,13.80
2022-10-14T03:17:04.743Z,13.80
2022-10-14T03:19:33.271Z,13.80
2022-10-14T03:22:02.931Z,13.80
2022-10-14T03:24:30.933Z,13.70
2022-10-14T03:26:59.259Z,13.80
2022-10-14T03:29:27.241Z,13.70
2022-10-14T03:31:55.145Z,13.70
2022-10-14T03:34:23.204Z,13.70
2022-10-14T03:36:51.162Z,13.70
2022-10-14T03:39:20.639Z,13.70
2022-10-14T03:41:48.681Z,13.70
2022-10-14T03:44:16.644Z,13.70
2022-10-14T03:46:44.606Z,13.70
2022-10-14T03:49:13.460Z,13.70
2022-10-14T03:51:41.422Z,13.70
2022-10-14T03:54:09.395Z,13.70
2022-10-14T03:56:38.817Z,13.70
2022-10-14T03:59:06.796Z,13.70
2022-10-14T04:01:34.800Z,13.70
2022-10-14T04:04:02.827Z,13.70
2022-10-14T04:06:31.136Z,13.60
2022-10-14T04:08:59.093Z,13.60
2022-10-14T04:11:27.199Z,13.60
2022-10-14T04:13:58.885Z,13.60
2022-10-14T04:16:27.245Z,13.60
2022-10-14T04:18:55.272Z,13.60
2022-10-14T04:21:23.361Z,13.60
2022-10-14T04:23:52.202Z,13.60
2022-10-14T04:26:20.121Z,13.60
2022-10-14T04:28:48.155Z,13.60
2022-10-14T04:31:17.632Z,13.50
2022-10-14T04:33:45.558Z,13.50
2022-10-14T04:36:13.544Z,13.60
2022-10-14T04:38:41.908Z,13.60
2022-10-14T04:41:09.950Z,13.60
2022-10-14T04:43:37.932Z,13.60
2022-10-14T04:46:06.232Z,13.60
2022-10-14T04:48:35.600Z,13.60
2022-10-14T04:51:03.559Z,13.60
2022-10-14T04:53:31.563Z,13.60
2022-10-14T04:55:59.507Z,13.60
2022-10-14T04:58:27.469Z,13.60
2022-10-14T05:00:55.827Z,13.60
2022-10-14T05:03:23.775Z,13.60
2022-10-14T05:05:53.087Z,13.60
2022-10-14T05:08:21.471Z,13.60
2022-10-14T05:10:49.921Z,13.60
2022-10-14T05:13:18.137Z,13.60
2022-10-14T05:15:46.180Z,13.60
2022-10-14T05:18:14.617Z,13.60
2022-10-14T05:20:42.532Z,13.60
2022-10-14T05:23:11.934Z,13.60
2022-10-14T05:25:39.894Z,13.60
2022-10-14T05:56:05.328Z,13.60
2022-10-14T05:58:35.287Z,13.50
2022-10-14T06:01:05.993Z,13.60
2022-10-14T06:03:35.557Z,13.50
2022-10-14T06:06:04.744Z,13.50
2022-10-14T06:08:33.928Z,13.50
2022-10-14T06:11:06.861Z,13.50
2022-10-14T06:13:36.531Z,13.50
2022-10-14T06:16:07.266Z,13.50
2022-10-14T06:18:37.179Z,13.50
2022-10-14T06:21:07.681Z,13.50
2022-10-14T06:23:36.976Z,13.50
2022-10-14T06:26:10.356Z,13.50
2022-10-14T06:28:40.006Z,13.50
2022-10-14T06:31:09.757Z,13.50
2022-10-14T06:33:39.199Z,13.50
2022-10-14T06:36:08.014Z,13.60
2022-10-14T06:38:36.075Z,13.60
2022-10-14T06:41:04.739Z,13.50
2022-10-14T06:43:35.201Z,13.50
2022-10-14T06:46:03.734Z,13.60
2022-10-14T06:48:31.786Z,13.60
2022-10-14T06:51:00.511Z,13.60
2022-10-14T06:53:29.230Z,13.60
2022-10-14T06:56:01.711Z,13.60
2022-10-14T06:58:30.366Z,13.60
2022-10-14T07:01:04.135Z,13.60
2022-10-14T07:03:32.455Z,13.60
2022-10-14T07:21:16.375Z,13.70
2022-10-14T07:22:39.074Z,13.70
2022-10-14T07:29:34.504Z,13.80
2022-10-14T07:32:02.635Z,13.80
2022-10-14T07:34:31.125Z,13.90
2022-10-14T07:36:59.151Z,13.90
2022-10-14T07:39:28.976Z,13.90
2022-10-14T07:41:56.970Z,13.90
2022-10-14T07:49:00.139Z,13.90
2022-10-14T07:51:29.231Z,13.90
2022-10-14T07:53:59.369Z,14.00
2022-10-14T07:56:29.118Z,14.00
2022-10-14T07:58:57.133Z,14.00
2022-10-14T08:01:25.192Z,14.00
2022-10-14T08:03:53.472Z,14.20
2022-10-14T08:06:21.903Z,14.20
2022-10-14T08:08:50.011Z,14.20
2022-10-14T08:11:20.444Z,14.20
2022-10-14T08:13:50.399Z,14.20
2022-10-14T08:16:21.007Z,14.30
2022-10-14T08:18:49.111Z,14.30
2022-10-14T08:21:18.627Z,14.30
2022-10-14T08:23:47.001Z,14.30
2022-10-14T08:26:23.292Z,14.40
2022-10-14T08:28:53.805Z,14.60
2022-10-14T08:31:22.373Z,14.70
2022-10-14T08:33:50.592Z,14.70
2022-10-14T08:36:19.419Z,14.70
2022-10-14T08:38:47.852Z,14.60
2022-10-14T08:41:27.355Z,14.60
2022-10-14T08:44:08.516Z,14.50
2022-10-14T08:46:41.149Z,14.50
2022-10-14T08:49:15.909Z,14.60
2022-10-14T08:51:48.718Z,14.70
2022-10-14T08:54:25.542Z,14.80
2022-10-14T08:56:54.917Z,14.80
2022-10-14T08:59:25.060Z,14.90
2022-10-14T09:01:56.826Z,14.90
2022-10-14T09:04:24.928Z,15.00
2022-10-14T09:06:55.520Z,15.10
2022-10-14T09:09:27.492Z,15.10
2022-10-14T09:12:00.345Z,15.10
2022-10-14T09:14:35.145Z,15.10
2022-10-14T09:17:08.507Z,15.30
2022-10-14T09:19:42.919Z,15.30
2022-10-14T09:22:14.894Z,15.30
2022-10-14T09:24:46.301Z,15.30
2022-10-14T09:27:17.367Z,15.30
2022-10-14T09:29:50.059Z,15.30
2022-10-14T09:32:25.308Z,15.30
2022-10-14T09:34:53.748Z,15.30
2022-10-14T09:37:29.846Z,15.40
2022-10-14T09:40:00.885Z,15.50
2022-10-14T09:42:37.057Z,15.60
2022-10-14T09:45:15.250Z,15.70
2022-10-14T09:47:52.350Z,15.80
2022-10-14T09:50:27.145Z,15.90
2022-10-14T09:52:58.659Z,15.90
2022-10-14T09:55:26.697Z,15.90
2022-10-14T09:58:04.931Z,15.90
2022-10-14T10:00:37.587Z,15.90
2022-10-14T10:03:06.954Z,16.00
2022-10-14T10:05:36.827Z,16.00
2022-10-14T10:08:16.885Z,15.90
2022-10-14T10:11:02.122Z,15.90
2022-10-14T10:13:39.468Z,15.90
2022-10-14T10:16:20.886Z,16.00
2022-10-14T10:18:49.188Z,16.10
2022-10-14T10:21:19.969Z,16.30
2022-10-14T10:23:54.231Z,16.30
2022-10-14T10:26:25.969Z,16.40
2022-10-14T10:28:57.803Z,16.50
2022-10-14T10:32:06.499Z,16.50
2022-10-14T10:35:01.984Z,16.50
2022-10-14T10:37:32.817Z,16.40
2022-10-14T10:40:42.866Z,16.50
2022-10-14T10:43:44.751Z,16.50
2022-10-14T10:46:30.170Z,16.40
2022-10-14T10:49:11.256Z,16.40
2022-10-14T10:51:46.398Z,16.50
2022-10-14T10:54:31.416Z,16.40
2022-10-14T10:57:03.192Z,16.50
2022-10-14T10:59:44.679Z,16.60
2022-10-14T11:02:56.113Z,16.60
2022-10-14T11:05:54.682Z,16.60
2022-10-14T11:08:58.114Z,16.60
2022-10-14T11:11:46.420Z,16.60
2022-10-14T11:14:37.519Z,16.70
2022-10-14T11:17:15.154Z,16.60
2022-10-14T11:19:51.659Z,16.70
2022-10-14T11:22:40.031Z,16.80
2022-10-14T11:25:21.614Z,16.80
2022-10-14T11:27:55.272Z,16.80
2022-10-14T11:30:26.481Z,16.80
2022-10-14T11:33:07.686Z,16.70
2022-10-14T11:35:48.295Z,16.70
2022-10-14T11:38:31.276Z,16.70
2022-10-14T11:41:03.498Z,16.60
2022-10-14T11:43:40.558Z,16.60
2022-10-14T11:46:12.033Z,16.60
2022-10-14T11:48:46.638Z,16.60
2022-10-14T11:51:26.482Z,16.60
2022-10-14T11:54:02.762Z,16.60
2022-10-14T11:56:46.751Z,16.60
2022-10-14T11:59:52.807Z,16.60
2022-10-14T12:02:39.393Z,16.60
2022-10-14T12:05:16.032Z,16.60
2022-10-14T12:08:01.722Z,16.60
2022-10-14T12:10:40.905Z,16.70
2022-10-14T12:13:18.183Z,16.80
2022-10-14T12:15:50.593Z,16.80
2022-10-14T12:18:21.929Z,16.90
2022-10-14T12:21:00.942Z,16.90
2022-10-14T12:23:41.021Z,16.90
2022-10-14T12:26:19.782Z,16.90
2022-10-14T12:28:52.868Z,17.00
2022-10-14T12:31:41.531Z,17.00
2022-10-14T12:34:37.992Z,17.10
2022-10-14T12:37:58.928Z,17.10
2022-10-14T12:40:33.388Z,17.10
2022-10-14T12:43:23.383Z,17.20
2022-10-14T12:46:04.576Z,17.30
2022-10-14T12:48:37.188Z,17.30
2022-10-14T12:51:13.258Z,17.30
2022-10-14T12:53:54.036Z,17.30
2022-10-14T12:57:01.079Z,17.30
2022-10-14T12:59:39.798Z,17.30
2022-10-14T13:02:24.021Z,17.30
2022-10-14T13:04:54.718Z,17.20
2022-10-14T13:07:47.367Z,17.20
2022-10-14T13:10:55.663Z,17.20
2022-10-14T13:13:50.264Z,17.10
2022-10-14T13:17:03.662Z,17.00
2022-10-14T13:19:48.405Z,17.10
2022-10-14T13:22:36.672Z,17.10
2022-10-14T13:25:17.051Z,17.10
2022-10-14T13:28:11.564Z,17.10
2022-10-14T13:30:52.772Z,17.10
2022-10-14T13:33:25.978Z,17.20
2022-10-14T13:36:05.926Z,17.10
2022-10-14T13:38:35.835Z,17.10
2022-10-14T13:41:04.715Z,17.10
2022-10-14T13:43:39.120Z,17.10
2022-10-14T13:46:11.016Z,17.10
2022-10-14T13:48:42.131Z,17.10
2022-10-14T13:51:44.167Z,17.10
2022-10-14T13:54:18.772Z,17.10
2022-10-14T13:57:35.041Z,17.10
2022-10-14T14:02:40.292Z,17.10
2022-10-14T14:05:16.814Z,17.20
2022-10-14T14:10:42.548Z,17.20
2022-10-14T14:13:19.904Z,17.20
2022-10-14T14:15:51.201Z,17.30
2022-10-14T14:18:43.536Z,17.30
2022-10-14T14:21:24.377Z,17.20
2022-10-14T14:23:56.088Z,17.20
2022-10-14T14:26:29.795Z,17.20
2022-10-14T14:29:00.038Z,17.20
2022-10-14T14:31:48.030Z,17.20
2022-10-14T14:34:20.172Z,17.20
2022-10-14T14:36:57.881Z,17.10
2022-10-14T14:39:35.017Z,17.20
2022-10-14T14:42:03.392Z,17.10
2022-10-14T14:44:34.339Z,17.00
2022-10-14T14:47:04.710Z,17.00
2022-10-14T14:49:38.049Z,17.00
2022-10-14T14:52:06.847Z,17.00
2022-10-14T14:54:45.714Z,17.00
2022-10-14T14:57:16.417Z,17.00
2022-10-14T14:59:52.993Z,16.90
2022-10-14T15:02:23.398Z,16.90
2022-10-14T15:05:02.622Z,16.80
2022-10-14T15:07:31.227Z,16.80
2022-10-14T15:10:02.286Z,16.80
2022-10-14T15:12:34.135Z,16.80
2022-10-14T15:15:03.085Z,16.80
2022-10-14T15:17:34.425Z,16.80
2022-10-14T15:20:29.455Z,16.80
2022-10-14T15:22:57.768Z,16.80
2022-10-14T15:25:31.271Z,16.80
2022-10-14T15:28:00.158Z,16.70
2022-10-14T15:30:34.581Z,16.70
2022-10-14T15:33:05.999Z,16.70
2022-10-14T15:35:35.997Z,16.60
2022-10-14T15:38:04.000Z,16.60
2022-10-14T15:40:34.251Z,16.70
2022-10-14T15:43:02.366Z,16.60
2022-10-14T15:45:30.297Z,16.60
2022-10-14T15:48:02.210Z,16.60
2022-10-14T15:50:30.674Z,16.50
2022-10-14T15:52:58.663Z,16.50
2022-10-14T15:55:29.711Z,16.50
2022-10-14T15:57:59.434Z,16.50
2022-10-14T16:00:27.459Z,16.50
2022-10-14T16:02:58.647Z,16.40
2022-10-14T16:05:55.388Z,16.30
2022-10-14T16:08:27.517Z,16.40
2022-10-14T16:10:59.209Z,16.30
2022-10-14T16:13:28.917Z,16.30
2022-10-14T16:16:02.435Z,16.30
2022-10-14T16:18:33.671Z,16.20
2022-10-14T16:21:03.797Z,16.30
2022-10-14T16:23:34.512Z,16.20
2022-10-14T16:26:02.673Z,16.20
2022-10-14T16:28:32.224Z,16.10
2022-10-14T16:31:03.330Z,16.10
2022-10-14T16:33:37.583Z,16.10
2022-10-14T16:36:08.920Z,16.00
2022-10-14T16:38:37.005Z,16.00
2022-10-14T16:41:05.207Z,16.00
2022-10-14T16:44:24.852Z,16.00
2022-10-14T16:47:20.421Z,16.00
2022-10-14T16:49:53.147Z,15.90
2022-10-14T16:52:21.877Z,15.90
2022-10-14T16:54:50.064Z,15.90
2022-10-14T16:57:18.480Z,15.90
2022-10-14T16:59:49.366Z,15.90
2022-10-14T17:02:18.307Z,15.90
2022-10-14T17:04:48.089Z,15.90
2022-10-14T17:07:17.439Z,15.80
2022-10-14T17:09:45.524Z,15.80
2022-10-14T17:12:20.339Z,15.80
2022-10-14T17:14:50.768Z,15.80
2022-10-14T17:17:18.858Z,15.80
2022-10-14T17:19:48.558Z,15.70
2022-10-14T17:22:18.081Z,15.80
2022-10-14T17:24:46.027Z,15.70
2022-10-14T17:27:18.494Z,15.70
2022-10-14T17:29:47.235Z,15.60
2022-10-14T17:32:16.836Z,15.70
2022-10-14T17:34:45.090Z,15.70
2022-10-14T17:37:13.415Z,15.70
2022-10-14T17:39:41.455Z,15.70
2022-10-14T17:42:14.968Z,15.70
2022-10-14T17:44:43.891Z,15.70
2022-10-14T17:47:12.465Z,15.70
2022-10-14T17:49:41.972Z,15.70
2022-10-14T17:52:11.283Z,15.70
2022-10-14T17:54:39.380Z,15.60
2022-10-14T17:57:07.463Z,15.60
2022-10-14T17:59:35.826Z,15.60
2022-10-14T18:02:04.749Z,15.50
2022-10-14T18:04:33.452Z,15.60
2022-10-14T18:07:07.825Z,15.50
2022-10-14T18:09:36.285Z,15.50
2022-10-14T18:12:09.483Z,15.50
2022-10-14T18:14:41.139Z,15.50
2022-10-14T18:17:14.239Z,15.50
2022-10-14T18:19:52.017Z,15.50
2022-10-14T18:22:22.043Z,15.50
2022-10-14T18:24:50.270Z,15.50
2022-10-14T18:27:18.774Z,15.50
2022-10-14T18:29:46.815Z,15.50
2022-10-14T18:32:14.992Z,15.50
2022-10-14T18:34:43.054Z,15.50
2022-10-14T18:37:11.429Z,15.40
2022-10-14T18:39:40.996Z,15.40
2022-10-14T18:42:09.060Z,15.40
2022-10-14T18:51:00.035Z,15.40
2022-10-14T18:53:29.371Z,15.40
2022-10-14T18:56:01.597Z,15.40
2022-10-14T18:58:30.401Z,15.40
2022-10-14T19:00:58.537Z,15.40
2022-10-14T19:03:26.628Z,15.40
2022-10-14T19:05:57.995Z,15.40
2022-10-14T19:08:26.218Z,15.40
2022-10-14T19:11:03.066Z,15.40
2022-10-14T19:13:31.087Z,15.30
2022-10-14T19:16:03.184Z,15.40
2022-10-14T19:18:31.235Z,15.40
2022-10-14T19:21:05.365Z,15.30
2022-10-14T19:23:33.283Z,15.30
2022-10-14T19:26:05.621Z,15.30
2022-10-14T19:28:33.675Z,15.30
2022-10-14T19:31:06.360Z,15.30
2022-10-14T19:33:36.485Z,15.30
2022-10-14T19:36:07.143Z,15.30
2022-10-14T19:38:35.783Z,15.20
2022-10-14T19:41:07.528Z,15.20
2022-10-14T19:43:35.934Z,15.30
2022-10-14T19:46:06.924Z,15.20
2022-10-14T19:48:35.158Z,15.20
2022-10-14T19:51:06.904Z,15.20
2022-10-14T19:53:35.474Z,15.20
2022-10-14T19:56:06.525Z,15.20
2022-10-14T19:58:34.610Z,15.20
2022-10-14T20:01:09.220Z,15.20
2022-10-14T20:03:37.652Z,15.20
2022-10-14T20:06:06.991Z,15.30
2022-10-14T20:08:35.801Z,15.30
2022-10-14T20:11:06.751Z,15.30
2022-10-14T20:13:37.542Z,15.30
2022-10-14T20:16:07.493Z,15.30
2022-10-14T20:18:35.721Z,15.30
2022-10-14T20:21:04.914Z,15.30
2022-10-14T20:23:34.727Z,15.30
2022-10-14T20:26:05.238Z,15.30
2022-10-14T20:28:35.947Z,15.30
2022-10-14T20:31:04.183Z,15.30
2022-10-14T20:33:33.281Z,15.20
2022-10-14T20:36:02.064Z,15.20
2022-10-14T20:38:30.919Z,15.30
2022-10-14T20:41:04.444Z,15.30
2022-10-14T20:43:33.735Z,15.30
2022-10-14T20:46:01.689Z,15.30
2022-10-14T20:48:30.652Z,15.30
2022-10-14T20:50:58.587Z,15.30
2022-10-14T20:53:28.759Z,15.30
2022-10-14T20:56:02.675Z,15.30
2022-10-14T20:58:30.688Z,15.30
2022-10-14T21:01:07.980Z,15.40
2022-10-14T21:03:36.144Z,15.40
2022-10-14T21:06:05.787Z,15.30
2022-10-14T21:08:34.275Z,15.40
2022-10-14T21:11:04.059Z,15.30
2022-10-14T21:13:32.895Z,15.40
2022-10-14T21:16:01.059Z,15.40
2022-10-14T21:18:30.628Z,15.30
2022-10-14T21:21:02.146Z,15.40
2022-10-14T21:23:30.068Z,15.40
2022-10-14T21:25:58.679Z,15.30
2022-10-14T21:28:26.811Z,15.40
2022-10-14T21:30:54.820Z,15.40
2022-10-14T21:33:22.758Z,15.40
2022-10-14T21:35:52.162Z,15.40
2022-10-14T21:38:20.088Z,15.30
2022-10-14T21:40:48.030Z,15.30
2022-10-14T21:43:16.097Z,15.30
2022-10-14T21:45:44.046Z,15.30
2022-10-14T21:48:11.970Z,15.30
2022-10-14T21:50:39.981Z,15.30
2022-10-14T21:53:11.397Z,15.20
2022-10-14T21:55:42.053Z,15.30
2022-10-14T21:58:10.018Z,15.20
2022-10-14T22:00:38.054Z,15.20
2022-10-14T22:03:06.081Z,15.20
2022-10-14T22:05:35.485Z,15.20
2022-10-14T22:08:03.400Z,15.10
2022-10-14T22:10:42.341Z,15.10
2022-10-14T22:13:11.194Z,15.10
2022-10-14T22:15:43.041Z,15.10
2022-10-14T22:18:11.125Z,15.10
2022-10-14T22:20:39.212Z,15.00
2022-10-14T22:23:07.289Z,15.00
2022-10-14T22:25:36.792Z,14.90
2022-10-14T22:28:05.331Z,14.90
2022-10-14T22:30:35.661Z,14.90
2022-10-14T22:33:03.615Z,14.80
2022-10-14T22:35:31.641Z,14.80
2022-10-14T22:38:00.284Z,14.70
2022-10-14T22:40:28.487Z,14.70
2022-10-14T22:42:57.931Z,14.70
2022-10-14T22:45:26.100Z,14.70
2022-10-14T22:47:54.017Z,14.60
2022-10-14T22:50:21.955Z,14.60
2022-10-14T22:52:50.086Z,14.60
2022-10-14T22:55:18.116Z,14.50
2022-10-14T22:57:46.081Z,14.50
2022-10-14T23:00:16.985Z,14.40
2022-10-14T23:02:46.552Z,14.40
2022-10-14T23:05:14.613Z,14.40
2022-10-14T23:07:42.843Z,14.40
2022-10-14T23:10:11.114Z,14.30
2022-10-14T23:12:39.041Z,14.30
2022-10-14T23:15:08.446Z,14.30
2022-10-14T23:17:37.701Z,14.30
2022-10-14T23:20:06.312Z,14.20
2022-10-14T23:22:34.816Z,14.10
2022-10-14T23:25:02.730Z,14.10
2022-10-14T23:27:32.912Z,14.10
2022-10-14T23:30:03.691Z,14.10
2022-10-14T23:32:31.601Z,14.00
2022-10-14T23:35:00.876Z,14.00
2022-10-14T23:37:28.879Z,13.90
2022-10-14T23:39:56.784Z,13.90
2022-10-14T23:42:24.695Z,13.80
2022-10-14T23:44:52.717Z,13.80
2022-10-14T23:47:20.741Z,13.80
2022-10-14T23:49:48.834Z,13.80
2022-10-14T23:52:18.221Z,13.80
2022-10-14T23:54:46.200Z,13.70
2022-10-14T23:57:14.161Z,13.70
2022-10-14T23:59:42.233Z,13.70
